createdAt,value
2018-03-24T00:01:03.181Z,67.73
2018-03-24T00:03:31.433Z,60.40
2018-03-24T00:05:59.697Z,65.12
2018-03-24T00:08:27.953Z,53.38
2018-03-24T00:10:56.207Z,59.92
2018-03-24T00:13:24.454Z,55.53
2018-03-24T00:15:53.483Z,58.15
2018-03-24T00:18:21.737Z,59.58
2018-03-24T00:20:50.798Z,56.13
2018-03-24T00:23:19.049Z,55.80
2018-03-24T00:25:47.310Z,51.63
2018-03-24T00:28:15.558Z,61.97
2018-03-24T00:30:43.812Z,57.87
2018-03-24T00:33:12.830Z,55.93
2018-03-24T00:35:41.098Z,58.53
2018-03-24T00:38:10.109Z,58.28
2018-03-24T00:40:38.354Z,68.63
2018-03-24T00:43:07.380Z,59.00
2018-03-24T00:45:35.625Z,58.40
2018-03-24T00:48:04.647Z,55.57
2018-03-24T00:50:32.889Z,63.87
2018-03-24T00:53:01.910Z,70.70
2018-03-24T00:55:30.161Z,65.32
2018-03-24T00:57:59.181Z,60.85
2018-03-24T01:00:27.435Z,58.60
2018-03-24T01:02:56.465Z,62.00
2018-03-24T01:05:24.709Z,56.30
2018-03-24T01:07:52.970Z,60.63
2018-03-24T01:10:21.978Z,59.08
2018-03-24T01:12:50.229Z,59.67
2018-03-24T01:15:19.246Z,62.22
2018-03-24T01:17:47.502Z,63.50
2018-03-24T01:20:16.520Z,68.70
2018-03-24T01:22:44.798Z,58.97
2018-03-24T01:25:13.052Z,64.13
2018-03-24T01:27:42.070Z,65.53
2018-03-24T01:30:10.333Z,62.95
2018-03-24T01:32:38.589Z,64.62
2018-03-24T01:35:07.616Z,66.22
2018-03-24T01:37:35.865Z,63.53
2018-03-24T01:40:04.890Z,62.25
2018-03-24T01:42:33.138Z,71.53
2018-03-24T01:45:02.175Z,56.53
2018-03-24T01:47:30.430Z,68.43
2018-03-24T01:49:58.689Z,62.15
2018-03-24T01:52:26.942Z,60.33
2018-03-24T01:54:55.969Z,68.35
2018-03-24T01:57:24.225Z,67.60
2018-03-24T01:59:53.241Z,59.40
2018-03-24T02:02:21.494Z,57.38
2018-03-24T02:04:50.509Z,64.20
2018-03-24T02:07:18.762Z,70.40
2018-03-24T02:09:47.791Z,64.22
2018-03-24T02:12:16.038Z,69.80
2018-03-24T02:14:45.063Z,63.13
2018-03-24T02:17:13.322Z,65.45
2018-03-24T02:19:41.564Z,64.55
2018-03-24T02:22:10.590Z,65.03
2018-03-24T02:24:44.270Z,57.92
2018-03-24T02:27:13.297Z,67.90
2018-03-24T02:29:41.546Z,72.43
2018-03-24T02:32:10.572Z,71.57
2018-03-24T02:34:38.810Z,72.53
2018-03-24T02:37:07.839Z,69.12
2018-03-24T02:39:36.085Z,67.12
2018-03-24T02:42:05.102Z,64.40
2018-03-24T02:44:33.353Z,74.40
2018-03-24T02:47:01.625Z,75.07
2018-03-24T02:49:30.639Z,71.22
2018-03-24T02:51:58.900Z,71.12
2018-03-24T02:54:27.906Z,70.47
2018-03-24T02:56:56.166Z,66.82
2018-03-24T02:59:25.186Z,59.35
2018-03-24T03:01:53.449Z,57.45
2018-03-24T03:04:21.698Z,72.35
2018-03-24T03:06:49.981Z,62.15
2018-03-24T03:09:18.991Z,72.27
2018-03-24T03:11:47.243Z,74.18
2018-03-24T03:14:16.266Z,69.43
2018-03-24T03:16:44.517Z,79.05
2018-03-24T03:19:13.533Z,79.95
2018-03-24T03:21:53.685Z,85.78
2018-03-24T03:24:21.944Z,81.87
2018-03-24T03:26:50.958Z,81.30
2018-03-24T03:29:19.216Z,92.95
2018-03-24T03:34:47.746Z,103.55
2018-03-24T03:37:16.002Z,108.03
2018-03-24T03:39:44.256Z,113.30
2018-03-24T03:42:13.281Z,105.05
2018-03-24T03:44:41.534Z,127.12
2018-03-24T03:47:10.550Z,119.78
2018-03-24T03:49:38.810Z,101.85
2018-03-24T03:52:07.061Z,130.18
2018-03-24T03:54:36.085Z,133.77
2018-03-24T03:57:04.336Z,138.68
2018-03-24T03:59:33.354Z,144.48
2018-03-24T04:02:01.610Z,146.68
2018-03-24T04:04:30.625Z,168.85
2018-03-24T04:06:58.881Z,167.27
2018-03-24T04:09:27.902Z,173.20
2018-03-24T04:11:56.153Z,182.45
2018-03-24T04:14:25.197Z,190.88
2018-03-24T04:16:53.427Z,201.82
2018-03-24T04:19:21.677Z,220.25
2018-03-24T04:21:49.985Z,209.70
2018-03-24T04:24:19.005Z,214.35
2018-03-24T04:26:47.261Z,242.75
2018-03-24T04:29:15.498Z,239.70
2018-03-24T04:31:44.524Z,234.52
2018-03-24T04:34:12.777Z,271.75
2018-03-24T04:36:41.807Z,267.83
2018-03-24T04:39:10.053Z,257.75
2018-03-24T04:41:39.077Z,241.30
2018-03-24T04:44:07.337Z,232.87
2018-03-24T04:46:35.586Z,291.55
2018-03-24T04:49:04.598Z,241.98
2018-03-24T04:51:32.856Z,268.63
2018-03-24T04:54:01.879Z,254.80
2018-03-24T04:56:30.129Z,283.15
2018-03-24T04:58:59.146Z,322.58
2018-03-24T05:01:27.393Z,296.55
2018-03-24T05:03:56.442Z,303.73
2018-03-24T05:06:24.669Z,294.25
2018-03-24T05:08:53.686Z,324.67
2018-03-24T05:11:21.942Z,309.12
2018-03-24T05:13:50.962Z,335.60
2018-03-24T05:16:19.211Z,341.08
2018-03-24T05:18:48.226Z,319.23
2018-03-24T05:21:16.481Z,331.45
2018-03-24T05:23:45.497Z,320.52
2018-03-24T05:26:13.766Z,315.42
2018-03-24T05:28:42.770Z,320.23
2018-03-24T05:31:11.027Z,319.40
2018-03-24T05:33:39.281Z,356.77
2018-03-24T05:36:07.536Z,324.77
2018-03-24T05:38:35.785Z,321.30
2018-03-24T05:41:04.049Z,329.80
2018-03-24T05:43:32.298Z,329.25
2018-03-24T05:46:00.540Z,308.73
2018-03-24T05:48:28.822Z,316.25
2018-03-24T05:50:57.052Z,317.30
2018-03-24T05:53:25.302Z,284.67
2018-03-24T05:55:53.550Z,318.83
2018-03-24T05:58:21.811Z,307.73
2018-03-24T06:00:50.060Z,322.25
2018-03-24T06:03:18.316Z,344.00
2018-03-24T06:05:46.563Z,349.12
2018-03-24T06:08:15.596Z,297.52
2018-03-24T06:10:43.846Z,331.35
2018-03-24T06:13:12.105Z,331.42
2018-03-24T06:15:41.118Z,314.67
2018-03-24T06:18:09.373Z,318.98
2018-03-24T06:20:38.395Z,315.48
2018-03-24T06:23:06.646Z,332.27
2018-03-24T06:25:35.662Z,274.05
2018-03-24T06:28:03.917Z,262.98
2018-03-24T06:30:45.610Z,263.52
2018-03-24T06:33:14.633Z,259.75
2018-03-24T06:35:42.881Z,275.45
2018-03-24T06:38:11.902Z,263.30
2018-03-24T06:40:40.162Z,284.23
2018-03-24T06:43:08.422Z,257.20
2018-03-24T06:45:37.437Z,271.58
2018-03-24T06:48:05.697Z,223.68
2018-03-24T06:50:33.946Z,228.57
2018-03-24T06:53:02.206Z,211.87
2018-03-24T06:55:30.462Z,200.82
2018-03-24T06:57:58.724Z,220.60
2018-03-24T07:00:26.975Z,175.70
2018-03-24T07:02:55.232Z,168.35
2018-03-24T07:05:23.488Z,138.65
2018-03-24T07:07:51.738Z,124.35
2018-03-24T07:10:20.000Z,104.18
2018-03-24T07:12:48.245Z,93.00
2018-03-24T07:15:17.263Z,82.90
2018-03-24T07:17:45.512Z,72.85
2018-03-24T07:20:14.530Z,58.05
2018-03-24T07:22:42.782Z,51.35
2018-03-24T07:25:11.807Z,47.38
2018-03-24T07:27:40.057Z,44.95
2018-03-24T07:30:08.333Z,41.92
2018-03-24T07:32:37.340Z,43.50
2018-03-24T07:35:05.590Z,40.40
2018-03-24T07:37:34.597Z,47.03
2018-03-24T07:40:02.868Z,45.63
2018-03-24T07:42:31.877Z,36.08
2018-03-24T07:45:00.138Z,37.63
2018-03-24T07:47:28.387Z,40.57
2018-03-24T07:49:56.650Z,38.53
2018-03-24T07:52:24.899Z,38.90
2018-03-24T07:54:53.164Z,36.33
2018-03-24T07:57:21.409Z,39.28
2018-03-24T07:59:50.422Z,37.03
2018-03-24T08:02:18.681Z,35.85
2018-03-24T08:04:47.697Z,38.70
2018-03-24T08:07:15.952Z,34.92
2018-03-24T08:09:44.205Z,37.25
2018-03-24T08:12:13.227Z,42.60
2018-03-24T08:14:41.472Z,34.93
2018-03-24T08:17:10.497Z,34.05
2018-03-24T08:19:38.750Z,35.60
2018-03-24T08:22:07.779Z,34.80
2018-03-24T08:24:36.030Z,34.30
2018-03-24T08:27:05.047Z,35.93
2018-03-24T08:29:33.294Z,30.53
2018-03-24T08:32:02.319Z,34.10
2018-03-24T08:34:30.566Z,30.70
2018-03-24T08:36:59.580Z,33.20
2018-03-24T08:39:27.836Z,31.80
2018-03-24T08:41:56.845Z,32.30
2018-03-24T08:44:25.088Z,34.03
2018-03-24T08:46:53.338Z,30.90
2018-03-24T08:49:21.581Z,31.80
2018-03-24T08:51:49.834Z,30.57
2018-03-24T08:54:18.846Z,33.43
2018-03-24T08:56:47.109Z,30.70
2018-03-24T08:59:16.115Z,29.93
2018-03-24T09:01:44.376Z,27.37
2018-03-24T09:04:13.382Z,27.20
2018-03-24T09:06:41.646Z,30.87
2018-03-24T09:09:09.894Z,32.73
2018-03-24T09:11:38.139Z,29.03
2018-03-24T09:14:06.396Z,30.93
2018-03-24T09:16:34.642Z,30.10
2018-03-24T09:19:03.664Z,34.50
2018-03-24T09:21:31.902Z,34.63
2018-03-24T09:24:00.917Z,28.73
2018-03-24T09:26:29.162Z,31.77
2018-03-24T09:28:58.183Z,31.30
2018-03-24T09:31:26.422Z,31.97
2018-03-24T09:33:54.675Z,28.37
2018-03-24T09:36:22.913Z,28.83
2018-03-24T09:38:51.166Z,29.17
2018-03-24T09:41:20.186Z,29.03
2018-03-24T09:43:48.441Z,25.13
2018-03-24T09:46:17.449Z,24.30
2018-03-24T09:48:45.690Z,20.87
2018-03-24T09:51:13.929Z,20.80
2018-03-24T09:53:42.178Z,21.03
2018-03-24T09:56:10.426Z,18.80
2018-03-24T09:58:39.442Z,21.07
2018-03-24T10:01:07.690Z,17.40
2018-03-24T10:03:36.726Z,21.47
2018-03-24T10:06:04.956Z,21.40
2018-03-24T10:08:33.977Z,19.30
2018-03-24T10:11:02.285Z,17.93
2018-03-24T10:13:31.242Z,20.67
2018-03-24T10:16:00.249Z,18.83
2018-03-24T10:18:28.494Z,23.70
2018-03-24T10:24:27.637Z,19.10
2018-03-24T10:26:55.881Z,20.67
2018-03-24T10:29:24.906Z,21.03
2018-03-24T10:31:53.153Z,22.30
2018-03-24T10:34:22.171Z,17.40
2018-03-24T10:36:50.413Z,17.47
2018-03-24T10:39:19.428Z,19.97
2018-03-24T10:41:48.448Z,19.30
2018-03-24T10:44:16.685Z,20.07
2018-03-24T10:46:45.708Z,21.20
2018-03-24T10:49:13.955Z,23.77
2018-03-24T10:51:42.973Z,15.83
2018-03-24T10:54:11.214Z,17.50
2018-03-24T10:56:40.246Z,18.40
2018-03-24T10:59:08.499Z,17.90
2018-03-24T11:01:38.250Z,20.43
2018-03-24T11:04:06.508Z,18.30
2018-03-24T11:06:34.754Z,16.13
2018-03-24T11:09:03.874Z,14.43
2018-03-24T11:11:32.156Z,18.20
2018-03-24T11:14:00.436Z,17.00
2018-03-24T11:16:28.690Z,19.07
2018-03-24T11:18:56.955Z,11.20
2018-03-24T11:21:25.979Z,13.43
2018-03-24T11:23:54.271Z,15.50
2018-03-24T11:26:22.529Z,11.30
2018-03-24T11:28:50.799Z,11.50
2018-03-24T11:31:19.053Z,10.83
2018-03-24T11:33:48.074Z,9.97
2018-03-24T11:36:16.316Z,10.17
2018-03-24T11:38:45.331Z,12.00
2018-03-24T11:41:13.568Z,11.03
2018-03-24T11:43:41.815Z,11.83
2018-03-24T11:46:10.062Z,10.77
2018-03-24T11:48:38.318Z,13.00
2018-03-24T11:51:07.336Z,12.63
2018-03-24T11:53:47.350Z,12.30
2018-03-24T11:56:15.638Z,14.70
2018-03-24T11:58:43.857Z,15.40
2018-03-24T12:01:12.100Z,14.43
2018-03-24T12:03:40.361Z,13.90
2018-03-24T12:06:09.377Z,14.87
2018-03-24T12:08:37.629Z,13.93
2018-03-24T12:11:06.647Z,15.37
2018-03-24T12:13:34.901Z,17.23
2018-03-24T12:16:03.905Z,16.00
2018-03-24T12:18:32.165Z,19.70
2018-03-24T12:21:01.174Z,17.83
2018-03-24T12:23:29.419Z,20.37
2018-03-24T12:25:57.665Z,20.43
2018-03-24T12:28:25.917Z,19.63
2018-03-24T12:30:54.164Z,17.73
2018-03-24T12:33:23.172Z,19.43
2018-03-24T12:35:51.502Z,18.70
2018-03-24T12:38:19.753Z,22.93
2018-03-24T12:40:47.999Z,17.63
2018-03-24T12:43:16.244Z,20.33
2018-03-24T12:45:44.493Z,22.07
2018-03-24T12:48:12.743Z,17.43
2018-03-24T12:50:40.987Z,19.20
2018-03-24T12:53:10.003Z,17.83
2018-03-24T12:55:38.251Z,19.40
2018-03-24T12:58:07.261Z,16.67
2018-03-24T13:00:35.514Z,19.50
2018-03-24T13:03:04.524Z,21.40
2018-03-24T13:05:32.783Z,20.13
2018-03-24T13:08:01.789Z,17.67
2018-03-24T13:10:30.043Z,18.57
2018-03-24T13:12:58.295Z,19.53
2018-03-24T13:15:26.554Z,20.00
2018-03-24T13:17:54.797Z,18.30
2018-03-24T13:20:23.093Z,18.03
2018-03-24T13:22:51.337Z,18.30
2018-03-24T13:25:20.360Z,14.90
2018-03-24T13:27:48.675Z,18.27
2018-03-24T13:30:16.923Z,18.13
2018-03-24T13:32:45.174Z,18.10
2018-03-24T13:35:13.424Z,17.90
2018-03-24T13:37:42.452Z,16.70
2018-03-24T13:40:10.691Z,17.13
2018-03-24T13:42:39.709Z,18.50
2018-03-24T13:45:07.950Z,18.07
2018-03-24T13:47:36.198Z,19.50
2018-03-24T13:50:04.440Z,18.70
2018-03-24T13:52:32.691Z,18.40
2018-03-24T13:55:01.715Z,20.43
2018-03-24T13:57:29.973Z,18.20
2018-03-24T13:59:58.212Z,15.93
2018-03-24T14:02:26.464Z,17.93
2018-03-24T14:04:54.707Z,15.63
2018-03-24T14:07:22.958Z,19.93
2018-03-24T14:09:51.974Z,17.20
2018-03-24T14:12:20.226Z,15.30
2018-03-24T14:14:49.238Z,17.50
2018-03-24T14:17:17.493Z,15.00
2018-03-24T14:19:46.505Z,18.30
2018-03-24T14:22:14.766Z,15.10
2018-03-24T14:24:43.777Z,13.23
2018-03-24T14:27:12.058Z,15.70
2018-03-24T14:29:40.306Z,15.73
2018-03-24T14:32:09.326Z,15.10
2018-03-24T14:34:37.589Z,18.17
2018-03-24T14:37:06.593Z,16.07
2018-03-24T14:39:34.846Z,14.73
2018-03-24T14:42:03.861Z,15.17
2018-03-24T14:44:32.114Z,15.63
2018-03-24T14:47:01.130Z,14.87
2018-03-24T14:49:29.385Z,15.50
2018-03-24T14:51:58.389Z,17.63
2018-03-24T14:54:26.663Z,16.33
2018-03-24T14:56:55.662Z,18.07
2018-03-24T14:59:23.922Z,18.53
2018-03-24T15:01:52.937Z,16.20
2018-03-24T15:04:21.196Z,17.73
2018-03-24T15:06:50.209Z,18.23
2018-03-24T15:09:18.471Z,15.70
2018-03-24T15:11:46.718Z,15.20
2018-03-24T15:14:14.974Z,13.63
2018-03-24T15:16:43.227Z,16.17
2018-03-24T15:19:11.490Z,15.87
2018-03-24T15:21:39.736Z,14.57
2018-03-24T15:24:09.019Z,16.40
2018-03-24T15:26:37.270Z,14.20
2018-03-24T15:29:23.266Z,13.93
2018-03-24T15:32:09.270Z,15.90
2018-03-24T15:34:55.401Z,14.87
2018-03-24T15:37:23.649Z,15.20
2018-03-24T15:39:52.674Z,17.53
2018-03-24T15:42:20.916Z,15.10
2018-03-24T15:44:49.943Z,14.83
2018-03-24T15:47:18.194Z,15.63
2018-03-24T15:49:47.216Z,17.13
2018-03-24T15:52:15.461Z,16.77
2018-03-24T15:54:44.492Z,15.90
2018-03-24T15:57:12.736Z,15.60
2018-03-24T15:59:41.759Z,16.20
2018-03-24T16:02:10.006Z,16.67
2018-03-24T16:04:39.021Z,18.70
2018-03-24T16:07:07.273Z,16.17
2018-03-24T16:09:36.293Z,14.70
2018-03-24T16:12:04.545Z,16.10
2018-03-24T16:14:33.563Z,15.93
2018-03-24T16:17:01.813Z,17.20
2018-03-24T16:19:30.834Z,20.37
2018-03-24T16:21:59.089Z,16.90
2018-03-24T16:24:28.102Z,17.10
2018-03-24T16:26:56.362Z,17.43
2018-03-24T16:29:25.375Z,16.73
2018-03-24T16:31:53.642Z,17.07
2018-03-24T16:34:21.898Z,19.07
2018-03-24T16:36:50.914Z,18.43
2018-03-24T16:39:19.177Z,16.37
2018-03-24T16:41:48.177Z,20.57
2018-03-24T16:44:16.422Z,18.20
2018-03-24T16:46:45.438Z,15.83
2018-03-24T16:49:13.687Z,17.93
2018-03-24T16:51:41.968Z,19.50
2018-03-24T16:54:10.974Z,17.13
2018-03-24T16:56:39.982Z,18.47
2018-03-24T16:59:08.229Z,19.80
2018-03-24T17:01:37.238Z,17.53
2018-03-24T17:04:05.486Z,18.43
2018-03-24T17:06:33.729Z,19.77
2018-03-24T17:09:01.990Z,19.33
2018-03-24T17:11:30.231Z,16.93
2018-03-24T17:13:59.253Z,18.50
2018-03-24T17:16:27.493Z,24.33
2018-03-24T17:18:55.739Z,22.30
2018-03-24T17:21:23.979Z,17.93
2018-03-24T17:23:52.221Z,19.33
2018-03-24T17:26:21.237Z,19.47
2018-03-24T17:28:49.484Z,19.97
2018-03-24T17:31:18.500Z,16.50
2018-03-24T17:33:46.745Z,20.80
2018-03-24T17:36:15.001Z,17.43
2018-03-24T17:38:43.272Z,16.97
2018-03-24T17:41:11.514Z,18.13
2018-03-24T17:43:39.773Z,17.40
2018-03-24T17:46:08.020Z,19.93
2018-03-24T17:48:36.277Z,17.80
2018-03-24T17:51:04.518Z,19.10
2018-03-24T17:53:32.754Z,18.73
2018-03-24T17:56:01.853Z,18.33
2018-03-24T17:58:30.862Z,21.33
2018-03-24T18:00:59.106Z,21.73
2018-03-24T18:03:27.353Z,20.00
2018-03-24T18:05:55.601Z,20.63
2018-03-24T18:08:23.848Z,21.00
2018-03-24T18:10:52.869Z,20.23
2018-03-24T18:13:21.148Z,17.33
2018-03-24T18:15:50.134Z,19.93
2018-03-24T18:18:18.372Z,20.07
2018-03-24T18:20:46.629Z,20.83
2018-03-24T18:23:14.880Z,17.67
2018-03-24T18:25:43.129Z,14.00
2018-03-24T18:28:11.389Z,26.63
2018-03-24T18:30:39.631Z,18.13
2018-03-24T18:33:07.874Z,21.00
2018-03-24T18:35:36.128Z,20.07
2018-03-24T18:38:04.375Z,19.60
2018-03-24T18:40:32.629Z,22.10
2018-03-24T18:43:00.875Z,21.70
2018-03-24T18:45:29.124Z,21.80
2018-03-24T18:47:58.138Z,19.30
2018-03-24T18:50:26.386Z,19.07
2018-03-24T18:52:55.402Z,20.97
2018-03-24T18:55:23.641Z,17.20
2018-03-24T18:57:52.661Z,23.23
2018-03-24T19:00:20.949Z,17.10
2018-03-24T19:02:49.938Z,15.32
2018-03-24T19:05:18.190Z,14.03
2018-03-24T19:07:47.206Z,31.60
2018-03-24T19:10:15.462Z,25.93
2018-03-24T19:12:44.479Z,21.37
2018-03-24T19:15:12.722Z,21.73
2018-03-24T19:17:41.740Z,18.20
2018-03-24T19:20:10.020Z,22.20
2018-03-24T19:22:38.280Z,20.20
2018-03-24T19:25:07.296Z,16.73
2018-03-24T19:27:35.546Z,25.25
2018-03-24T19:30:04.563Z,19.70
2018-03-24T19:32:32.822Z,19.52
2018-03-24T19:35:01.082Z,20.40
2018-03-24T19:37:29.353Z,20.67
2018-03-24T19:39:57.586Z,16.30
2018-03-24T19:42:25.825Z,16.57
2018-03-24T19:44:54.082Z,22.93
2018-03-24T19:47:23.093Z,17.90
2018-03-24T19:49:51.342Z,20.13
2018-03-24T19:52:20.703Z,18.55
2018-03-24T19:54:48.958Z,25.07
2018-03-24T19:57:17.201Z,20.13
2018-03-24T19:59:46.221Z,20.65
2018-03-24T20:02:14.472Z,21.62
2018-03-24T20:04:43.503Z,24.17
2018-03-24T20:07:11.742Z,22.90
2018-03-24T20:09:40.766Z,29.63
2018-03-24T20:12:09.081Z,28.23
2018-03-24T20:14:37.277Z,34.67
2018-03-24T20:17:05.526Z,33.33
2018-03-24T20:19:33.777Z,32.47
2018-03-24T20:22:02.022Z,29.27
2018-03-24T20:24:30.278Z,27.77
2018-03-24T20:26:58.525Z,31.20
2018-03-24T20:29:26.785Z,33.90
2018-03-24T20:31:55.036Z,27.53
2018-03-24T20:34:23.301Z,24.48
2018-03-24T20:36:51.556Z,25.15
2018-03-24T20:39:19.794Z,25.63
2018-03-24T20:41:48.054Z,31.75
2018-03-24T20:44:16.300Z,24.75
2018-03-24T20:46:44.560Z,24.73
2018-03-24T20:49:12.803Z,34.80
2018-03-24T20:51:41.062Z,28.10
2018-03-24T20:54:09.312Z,28.53
2018-03-24T20:56:38.287Z,26.03
2018-03-24T20:59:06.591Z,29.05
2018-03-24T21:01:34.846Z,28.08
2018-03-24T21:04:03.998Z,28.20
2018-03-24T21:06:32.347Z,26.40
2018-03-24T21:09:00.620Z,23.83
2018-03-24T21:11:28.874Z,26.70
2018-03-24T21:13:57.126Z,24.73
2018-03-24T21:16:26.150Z,34.90
2018-03-24T21:18:54.401Z,32.13
2018-03-24T21:21:23.436Z,31.15
2018-03-24T21:23:51.699Z,31.12
2018-03-24T21:26:19.974Z,35.75
2018-03-24T21:28:48.226Z,31.55
2018-03-24T21:31:17.246Z,29.20
2018-03-24T21:33:45.503Z,41.58
2018-03-24T21:36:14.526Z,29.37
2018-03-24T21:38:42.782Z,36.45
2018-03-24T21:41:11.795Z,32.90
2018-03-24T21:43:40.058Z,37.80
2018-03-24T21:46:08.310Z,28.95
2018-03-24T21:48:37.338Z,36.23
2018-03-24T21:51:05.594Z,38.58
2018-03-24T21:53:33.859Z,34.50
2018-03-24T21:56:03.157Z,35.33
2018-03-24T21:58:32.182Z,36.50
2018-03-24T22:01:05.735Z,29.92
2018-03-24T22:03:30.491Z,29.87
2018-03-24T22:05:58.733Z,33.53
2018-03-24T22:08:27.763Z,33.15
2018-03-24T22:10:56.014Z,26.92
2018-03-24T22:13:24.266Z,31.23
2018-03-24T22:15:53.280Z,32.90
2018-03-24T22:18:21.546Z,30.02
2018-03-24T22:20:50.563Z,33.90
2018-03-24T22:23:18.821Z,28.45
2018-03-24T22:25:47.878Z,30.90
2018-03-24T22:28:16.129Z,32.42
2018-03-24T22:30:44.386Z,28.00
2018-03-24T22:33:12.650Z,29.10
2018-03-24T22:35:41.664Z,33.90
2018-03-24T22:38:10.035Z,30.73
2018-03-24T22:40:38.282Z,32.88
2018-03-24T22:43:07.357Z,32.05
2018-03-24T22:45:35.548Z,27.13
2018-03-24T22:48:04.601Z,31.08
2018-03-24T22:50:32.849Z,29.85
2018-03-24T22:53:01.117Z,33.85
2018-03-24T22:55:29.418Z,33.50
2018-03-24T22:57:57.753Z,38.60
2018-03-24T23:00:26.765Z,31.95
2018-03-24T23:02:55.013Z,38.35
2018-03-24T23:05:24.149Z,39.05
2018-03-24T23:07:52.391Z,35.17
2018-03-24T23:10:21.422Z,34.42
2018-03-24T23:12:49.667Z,38.33
2018-03-24T23:15:18.686Z,37.88
2018-03-24T23:17:46.932Z,39.13
2018-03-24T23:20:15.954Z,41.40
2018-03-24T23:22:44.243Z,47.22
2018-03-24T23:25:12.498Z,43.85
2018-03-24T23:27:40.751Z,41.50
2018-03-24T23:30:09.793Z,51.70
2018-03-24T23:32:38.153Z,52.17
2018-03-24T23:35:06.438Z,44.92
2018-03-24T23:37:34.692Z,41.88
2018-03-24T23:40:02.944Z,52.47
2018-03-24T23:42:32.050Z,60.38
2018-03-24T23:45:01.161Z,63.00
2018-03-24T23:47:29.431Z,43.53
2018-03-24T23:49:57.685Z,45.78
2018-03-24T23:52:26.696Z,42.15
2018-03-24T23:54:54.969Z,37.72
2018-03-24T23:57:23.988Z,36.63
2018-03-24T23:59:52.230Z,39.88
